< < Back
Terminal Aerodrome Forecast


Current Version              Previous Versions:   1  2  3  4  5  6  7  8  9  

Terminal Aerodrome Forecast

391
FTUS42 KTAE 020520
TAFDHN
TAF
KDHN 020520Z 0206/0306 21005KT P6SM SCT050=

Latest METAR

753
SAUS70 KWBC 020500 RRM
MTRDHN
METAR KDHN 020453Z AUTO 21007KT 10SM CLR 26/24 A3007 RMK AO2 SLP174
T02610239


USA.gov is the U.S. government's official web portal to all federal, state and local government web resources and services.